Time;durP1;ratioP1;P1;durP2;ratioP2;P2;SDS_P1;SDS_P2;PMS_P1;PMS_P2;Temp;Humidity;BMP_temperature;BMP_pressure;BME280_temperature;BME280_humidity;BME280_pressure;Samples;Min_cycle;Max_cycle;Signal;HPM_P1;HPM_P2
2023/09/19 00:01:41;;;;;;;5.10;2.03;;;;;;;15.90;62.60;99474.09;10523830;28;20233;-37
2023/09/19 00:06:44;;;;;;;1.83;1.73;;;;;;;15.80;63.16;99461.97;10528680;28;20261;-38
2023/09/19 00:11:47;;;;;;;3.43;2.00;;;;;;;15.24;64.48;99476.47;10523547;28;20250;-38
2023/09/19 00:16:49;;;;;;;1.60;1.50;;;;;;;15.39;63.96;99471.56;10525377;28;20242;-37
2023/09/19 00:21:52;;;;;;;3.70;1.80;;;;;;;16.03;62.28;99430.75;10513348;28;20246;-39
2023/09/19 00:26:55;;;;;;;3.00;1.70;;;;;;;16.75;60.87;99368.56;10517819;28;20231;-36
2023/09/19 00:31:57;;;;;;;1.80;1.70;;;;;;;14.86;65.05;99455.88;10509067;28;20226;-36
2023/09/19 00:36:59;;;;;;;2.03;1.60;;;;;;;15.99;60.28;99546.44;10524645;28;20260;-36
2023/09/19 00:42:04;;;;;;;4.03;1.50;;;;;;;16.59;59.88;99488.09;10527351;28;20480;-37
2023/09/19 00:47:06;;;;;;;3.43;1.50;;;;;;;16.67;60.66;99446.41;10527171;28;20284;-37
2023/09/19 00:52:10;;;;;;;2.97;1.40;;;;;;;16.87;59.33;99462.28;10512399;28;20229;-36
2023/09/19 00:57:12;;;;;;;3.77;1.57;;;;;;;17.05;58.60;99477.59;10521832;28;20231;-36
2023/09/19 01:02:15;;;;;;;2.30;1.77;;;;;;;16.39;61.45;99443.31;10529705;28;20846;-36
2023/09/19 01:07:18;;;;;;;3.43;1.30;;;;;;;16.05;61.09;99515.81;10507524;28;20708;-37
2023/09/19 01:12:33;;;;;;;3.27;2.00;;;;;;;17.28;59.05;99420.00;10510484;28;20222;-37
2023/09/19 01:17:44;;;;;;;1.57;1.43;;;;;;;17.09;59.48;99449.03;10525251;28;20237;-37
2023/09/19 01:23:11;;;;;;;2.53;1.80;;;;;;;16.47;60.09;99533.16;10527530;28;20227;-36
2023/09/19 01:28:38;;;;;;;2.13;1.80;;;;;;;16.83;58.98;99510.56;10510592;28;20239;-37
2023/09/19 01:34:04;;;;;;;2.60;1.50;;;;;;;16.65;60.23;99503.41;10520387;28;20299;-37
2023/09/19 01:39:10;;;;;;;2.07;1.80;;;;;;;16.51;60.99;99507.34;10516533;28;20634;-37
2023/09/19 01:44:22;;;;;;;2.57;1.80;;;;;;;17.05;59.94;99473.03;10522167;28;20242;-37
2023/09/19 01:49:26;;;;;;;4.37;1.97;;;;;;;17.21;59.15;99484.19;10509453;28;20710;-37
2023/09/19 01:54:33;;;;;;;3.33;1.93;;;;;;;16.98;59.48;99502.88;10500292;28;20399;-37
2023/09/19 01:59:47;;;;;;;4.60;1.83;;;;;;;17.63;58.27;99460.53;10494097;28;20234;-37
2023/09/19 02:04:50;;;;;;;2.47;1.80;;;;;;;17.53;58.60;99488.16;10511993;28;20242;-37
2023/09/19 02:09:52;;;;;;;3.13;1.70;;;;;;;17.42;58.22;99499.81;10527019;28;21056;-37
2023/09/19 02:14:53;;;;;;;1.73;1.60;;;;;;;16.92;60.16;99525.41;10528905;28;20245;-37
2023/09/19 02:19:56;;;;;;;1.70;1.60;;;;;;;16.50;60.68;99557.00;10525640;28;20222;-37
2023/09/19 02:25:00;;;;;;;2.07;1.60;;;;;;;17.18;59.32;99507.13;10523371;28;20226;-37
2023/09/19 02:30:03;;;;;;;3.40;1.60;;;;;;;17.44;59.05;99477.94;10522954;28;21082;-37
2023/09/19 02:35:06;;;;;;;2.30;1.73;;;;;;;16.79;60.51;99544.53;10527618;28;20236;-37
2023/09/19 02:40:18;;;;;;;2.70;1.83;;;;;;;16.47;60.84;99552.88;10521496;28;20401;-38
2023/09/19 02:45:22;;;;;;;2.23;1.80;;;;;;;16.78;59.76;99551.78;10519176;28;20254;-37
2023/09/19 02:50:24;;;;;;;4.30;1.90;;;;;;;17.25;59.13;99520.53;10518681;28;20601;-38
2023/09/19 02:55:26;;;;;;;2.93;2.20;;;;;;;17.30;58.50;99543.06;10520898;28;20249;-37
2023/09/19 03:00:27;;;;;;;5.93;1.97;;;;;;;17.62;57.92;99512.94;10516060;28;20230;-37
2023/09/19 03:05:32;;;;;;;1.93;1.70;;;;;;;17.43;58.73;99533.91;10519721;28;20239;-37
2023/09/19 03:10:37;;;;;;;2.57;1.67;;;;;;;16.83;59.79;99583.53;10516084;28;20236;-37
2023/09/19 03:15:46;;;;;;;3.50;1.80;;;;;;;16.47;60.86;99582.59;10514951;28;20325;-37
2023/09/19 03:20:57;;;;;;;3.40;2.03;;;;;;;17.76;57.97;99516.25;10517658;28;20311;-36
2023/09/19 03:25:58;;;;;;;2.97;2.00;;;;;;;16.98;59.47;99567.72;10512937;28;20238;-36
2023/09/19 03:31:05;;;;;;;2.23;1.77;;;;;;;18.27;56.80;99483.91;10493257;28;20227;-37
2023/09/19 03:36:07;;;;;;;3.57;2.27;;;;;;;18.40;56.15;99505.31;10507328;28;20291;-37
2023/09/19 03:41:09;;;;;;;3.10;1.67;;;;;;;17.35;58.40;99581.06;10497872;28;20278;-37
2023/09/19 03:46:12;;;;;;;1.87;1.70;;;;;;;17.60;57.76;99573.78;10510833;28;20269;-37
2023/09/19 03:51:14;;;;;;;4.23;2.00;;;;;;;17.74;57.51;99567.06;10501652;28;20603;-36
2023/09/19 03:56:16;;;;;;;3.17;1.80;;;;;;;16.92;59.08;99636.22;10497030;28;20326;-37
2023/09/19 04:01:18;;;;;;;2.23;1.73;;;;;;;16.97;59.76;99603.94;10503541;28;20292;-37
2023/09/19 04:06:20;;;;;;;4.57;1.80;;;;;;;17.24;58.54;99600.81;10504182;28;20238;-38
2023/09/19 04:11:22;;;;;;;2.20;1.95;;;;;;;17.85;57.63;99555.41;10507809;28;20776;-39
2023/09/19 04:16:23;;;;;;;5.05;2.08;;;;;;;17.34;58.44;99605.63;10515433;28;20245;-37
2023/09/19 04:21:26;;;;;;;2.83;1.73;;;;;;;17.96;57.47;99561.03;10519925;28;20695;-38
2023/09/19 04:26:28;;;;;;;2.83;2.10;;;;;;;17.67;57.94;99586.16;10512237;28;20233;-37
2023/09/19 04:31:31;;;;;;;5.20;2.00;;;;;;;16.97;59.51;99638.22;10518326;28;22132;-37
2023/09/19 04:36:33;;;;;;;2.50;1.77;;;;;;;17.86;57.54;99567.06;10507604;28;21065;-38
2023/09/19 04:41:39;;;;;;;2.78;2.20;;;;;;;17.45;57.98;99620.22;10512038;28;20648;-38
2023/09/19 04:46:41;;;;;;;2.00;1.73;;;;;;;17.58;57.81;99587.53;10529429;28;20234;-36
2023/09/19 04:51:42;;;;;;;4.13;2.10;;;;;;;17.55;57.50;99618.59;10529491;28;20273;-36
2023/09/19 04:56:44;;;;;;;4.83;2.10;;;;;;;17.28;58.05;99641.72;10526342;28;20230;-36
2023/09/19 05:01:46;;;;;;;2.27;2.07;;;;;;;17.01;58.78;99634.03;10537106;28;20720;-37
2023/09/19 05:06:48;;;;;;;3.80;2.07;;;;;;;17.21;57.89;99632.88;10530966;28;20322;-36
2023/09/19 05:11:52;;;;;;;3.23;2.23;;;;;;;16.88;58.46;99655.81;10529697;28;20321;-37
2023/09/19 05:16:54;;;;;;;3.10;2.37;;;;;;;16.88;58.56;99661.22;10520575;28;20242;-36
2023/09/19 05:21:56;;;;;;;4.13;2.40;;;;;;;15.92;60.24;99710.25;10527974;28;20226;-38
2023/09/19 05:26:58;;;;;;;5.77;2.40;;;;;;;16.56;58.76;99685.72;10527463;28;20318;-37
2023/09/19 05:31:59;;;;;;;3.57;2.43;;;;;;;16.58;59.05;99667.41;10527252;28;20310;-37
2023/09/19 05:37:02;;;;;;;2.53;2.23;;;;;;;15.83;61.08;99688.13;10545918;22;20245;-34
2023/09/19 05:42:04;;;;;;;4.00;2.40;;;;;;;16.44;58.86;99700.00;10568984;27;20241;-35
2023/09/19 05:47:08;;;;;;;2.30;1.90;;;;;;;16.33;59.00;99718.81;10566909;27;20346;-34
2023/09/19 05:52:11;;;;;;;3.43;2.70;;;;;;;16.68;58.57;99675.00;10571332;27;22244;-35
2023/09/19 05:57:12;;;;;;;3.67;2.50;;;;;;;15.91;59.15;99738.31;10571993;27;20232;-35
2023/09/19 06:02:15;;;;;;;3.43;2.10;;;;;;;16.68;57.66;99702.00;10558725;27;20226;-35
2023/09/19 06:07:17;;;;;;;5.20;2.53;;;;;;;15.57;59.26;99782.75;10565085;27;20229;-35
2023/09/19 06:12:19;;;;;;;6.17;2.40;;;;;;;15.94;59.13;99748.63;10565891;27;20226;-35
2023/09/19 06:17:21;;;;;;;2.97;2.13;;;;;;;16.73;57.29;99704.84;10570066;27;20243;-34
2023/09/19 06:22:24;;;;;;;3.43;2.10;;;;;;;17.08;56.17;99739.34;10567346;27;20586;-34
2023/09/19 06:27:25;;;;;;;2.30;2.10;;;;;;;16.29;57.98;99761.63;10565909;27;20233;-34
2023/09/19 06:32:28;;;;;;;2.73;2.00;;;;;;;16.72;57.37;99712.13;10563730;27;20231;-35
2023/09/19 06:37:30;;;;;;;3.23;2.33;;;;;;;16.53;57.36;99748.31;10554280;27;20605;-35
2023/09/19 06:42:32;;;;;;;3.30;2.40;;;;;;;15.74;58.34;99818.97;10516346;28;20243;-34
2023/09/19 06:47:34;;;;;;;3.70;2.27;;;;;;;15.71;58.70;99805.91;10523758;28;20248;-35
2023/09/19 06:52:37;;;;;;;2.77;2.17;;;;;;;15.53;60.10;99785.03;10519293;28;20304;-35
2023/09/19 06:57:40;;;;;;;4.43;2.07;;;;;;;16.52;57.64;99752.88;10510827;28;20230;-34
2023/09/19 07:02:42;;;;;;;3.30;2.23;;;;;;;17.10;56.22;99745.34;10519472;28;20310;-35
2023/09/19 07:07:45;;;;;;;7.27;2.63;;;;;;;16.77;57.75;99760.91;10505778;28;20255;-35
2023/09/19 07:12:47;;;;;;;3.60;2.00;;;;;;;17.34;56.20;99733.56;10516296;28;20226;-34
2023/09/19 07:17:48;;;;;;;3.00;1.90;;;;;;;16.45;57.02;99811.56;10520089;28;20307;-34
2023/09/19 07:22:50;;;;;;;2.40;2.17;;;;;;;16.69;56.62;99780.13;10515548;28;20234;-35
2023/09/19 07:27:54;;;;;;;2.20;1.70;;;;;;;17.29;55.51;99759.63;10518248;28;20244;-35
2023/09/19 07:32:56;;;;;;;4.20;2.20;;;;;;;17.29;54.33;99794.78;10498706;28;20809;-35
2023/09/19 07:38:01;;;;;;;2.90;2.00;;;;;;;17.13;55.14;99801.69;10515073;28;20727;-34
2023/09/19 07:43:04;;;;;;;3.70;2.17;;;;;;;17.55;54.76;99783.59;10510686;28;20226;-35
2023/09/19 07:48:14;;;;;;;3.67;1.73;;;;;;;17.39;54.47;99824.00;10523423;28;20265;-34
2023/09/19 07:53:17;;;;;;;2.30;1.63;;;;;;;16.79;55.12;99891.22;10526044;28;20223;-33
2023/09/19 07:58:19;;;;;;;2.80;1.50;;;;;;;17.70;53.10;99820.28;10526177;28;20243;-35
2023/09/19 08:03:20;;;;;;;5.20;1.80;;;;;;;17.93;52.66;99822.19;10524489;28;20269;-34
2023/09/19 08:08:23;;;;;;;1.67;1.37;;;;;;;16.81;53.56;99824.25;10506768;28;20318;-34
2023/09/19 08:13:26;;;;;;;2.80;1.97;;;;;;;17.66;51.16;99811.78;10524454;28;20252;-34
2023/09/19 08:18:30;;;;;;;2.30;1.63;;;;;;;16.70;50.93;99911.47;10523778;28;20651;-34
2023/09/19 08:23:32;;;;;;;5.37;2.07;;;;;;;17.28;50.08;99842.66;10523972;28;20222;-35
2023/09/19 08:28:35;;;;;;;2.92;1.50;;;;;;;15.48;51.81;99936.69;10525944;28;20232;-35
2023/09/19 08:33:37;;;;;;;3.17;1.40;;;;;;;17.40;49.50;99837.31;10522014;28;20610;-34
2023/09/19 08:38:40;;;;;;;1.67;1.40;;;;;;;16.53;49.91;99926.56;10525643;28;20619;-34
2023/09/19 08:43:43;;;;;;;2.73;1.70;;;;;;;17.99;48.45;99848.34;10530759;28;20303;-34
2023/09/19 08:49:02;;;;;;;2.47;1.30;;;;;;;17.86;49.13;99853.97;10518859;28;20239;-34
2023/09/19 08:54:07;;;;;;;2.67;1.30;;;;;;;17.61;49.37;99868.44;10530119;28;20790;-34
2023/09/19 08:59:11;;;;;;;1.58;1.48;;;;;;;16.95;49.98;99927.66;10522252;28;20242;-35
2023/09/19 09:04:13;;;;;;;1.83;1.73;;;;;;;16.25;51.05;99922.41;10502878;28;20335;-35
2023/09/19 09:09:15;;;;;;;3.40;1.50;;;;;;;17.77;49.07;99828.28;10527768;28;20272;-36
2023/09/19 09:14:18;;;;;;;2.33;1.70;;;;;;;17.04;50.48;99890.38;10531077;28;20240;-35
2023/09/19 09:19:24;;;;;;;2.75;1.65;;;;;;;17.09;49.99;99885.13;10503239;28;20228;-34
2023/09/19 09:24:33;;;;;;;4.10;1.70;;;;;;;17.89;48.83;99826.44;10503080;28;20257;-35
2023/09/19 09:29:47;;;;;;;3.42;2.33;;;;;;;17.75;47.79;99879.94;10523410;28;20234;-35
2023/09/19 09:34:51;;;;;;;3.53;1.67;;;;;;;16.98;49.07;99902.88;10526003;28;20253;-34
2023/09/19 09:40:11;;;;;;;3.55;1.50;;;;;;;17.84;48.88;99808.19;10503061;28;20231;-35
2023/09/19 09:50:44;;;;;;;3.78;1.50;;;;;;;16.99;49.07;99882.94;10504044;28;20579;-33
2023/09/19 09:56:06;;;;;;;5.45;2.13;;;;;;;18.48;46.91;99790.47;10502062;28;20222;-35
2023/09/19 10:01:15;;;;;;;2.28;1.90;;;;;;;18.61;47.08;99883.19;10496368;28;20241;-34
2023/09/19 10:11:30;;;;;;;4.10;1.90;;;;;;;17.94;47.75;99840.09;10499591;28;20257;-34
2023/09/19 10:16:34;;;;;;;2.40;1.67;;;;;;;16.70;49.04;99891.72;10500773;28;20318;-34
2023/09/19 10:21:36;;;;;;;2.35;1.75;;;;;;;17.23;48.52;99842.50;10496455;28;20291;-33
2023/09/19 10:26:39;;;;;;;3.45;1.70;;;;;;;17.64;47.34;99873.41;10502638;28;20227;-35
2023/09/19 10:31:47;;;;;;;4.68;1.83;;;;;;;17.32;48.26;99881.69;10500522;28;20235;-36
2023/09/19 10:36:52;;;;;;;4.32;1.98;;;;;;;17.46;48.41;99863.44;10508175;28;20250;-34
2023/09/19 10:41:58;;;;;;;4.18;2.22;;;;;;;17.66;47.54;99838.00;10517508;28;20890;-36
2023/09/19 10:47:02;;;;;;;3.00;1.80;;;;;;;18.83;46.36;99764.13;10524276;28;20699;-34
2023/09/19 10:52:10;;;;;;;4.28;1.67;;;;;;;18.41;46.76;99806.84;10520845;28;20355;-34
2023/09/19 10:57:16;;;;;;;2.20;1.80;;;;;;;18.09;46.79;99855.91;10522607;28;20230;-34
2023/09/19 11:06:22;;;;;;;4.20;2.17;;;;;;;17.28;48.26;99753.41;10366796;28;20811;-73
2023/09/19 11:11:46;;;;;;;2.83;2.08;;;;;;;17.53;47.71;99791.13;10300217;28;20238;-72
2023/09/19 11:17:15;;;;;;;2.67;2.05;;;;;;;18.68;46.53;99758.41;10318600;28;20229;-75
2023/09/19 11:22:22;;;;;;;1.65;1.55;;;;;;;18.03;46.37;99778.31;10316050;28;20230;-76
2023/09/19 11:27:27;;;;;;;2.67;2.00;;;;;;;19.18;44.09;99746.94;10319945;28;20239;-74
2023/09/19 11:33:07;;;;;;;2.63;1.50;;;;;;;18.97;45.30;99766.59;10314663;28;21014;-73
2023/09/19 11:38:12;;;;;;;2.38;1.60;;;;;;;18.33;45.73;99818.03;10315755;28;20613;-75
2023/09/19 11:43:34;;;;;;;3.72;2.03;;;;;;;18.24;45.42;99779.63;10313655;28;21020;-73
2023/09/19 11:48:38;;;;;;;2.30;1.70;;;;;;;18.20;45.06;99873.22;10313524;28;20238;-73
2023/09/19 11:53:44;;;;;;;1.58;1.48;;;;;;;19.13;44.19;99760.41;10329488;28;20261;-74
2023/09/19 11:58:48;;;;;;;4.95;1.75;;;;;;;18.02;45.26;99788.31;10320817;28;20601;-74
2023/09/19 12:03:57;;;;;;;1.90;1.58;;;;;;;18.86;43.86;99799.94;10314909;28;20242;-74
2023/09/19 12:09:00;;;;;;;3.25;2.20;;;;;;;19.23;43.35;99788.78;10317711;28;20261;-74
2023/09/19 12:14:03;;;;;;;1.40;1.30;;;;;;;19.19;43.73;99778.41;10306752;28;20314;-74
2023/09/19 12:19:21;;;;;;;3.53;1.67;;;;;;;19.70;42.74;99747.84;10288927;28;20614;-74
2023/09/19 12:24:26;;;;;;;1.73;1.40;;;;;;;19.22;43.39;99771.69;10293002;28;20306;-74
2023/09/19 12:29:29;;;;;;;1.77;1.55;;;;;;;19.32;43.37;99771.88;10290865;28;20226;-74
2023/09/19 12:34:34;;;;;;;1.65;1.48;;;;;;;19.48;42.38;99745.81;10288159;28;20329;-74
2023/09/19 12:39:41;;;;;;;1.88;1.60;;;;;;;19.24;43.12;99774.16;10286630;28;20610;-73
2023/09/19 12:45:09;;;;;;;2.47;1.60;;;;;;;19.00;43.60;99720.03;10291202;28;20234;-74
2023/09/19 12:50:13;;;;;;;1.67;1.38;;;;;;;19.36;43.84;99707.09;10287578;28;20317;-74
2023/09/19 12:55:24;;;;;;;3.35;1.58;;;;;;;19.74;43.63;99675.72;10289483;28;20231;-74
2023/09/19 13:00:34;;;;;;;2.28;1.60;;;;;;;20.09;43.53;99670.00;10299783;28;20236;-73
2023/09/19 13:05:57;;;;;;;5.57;1.80;;;;;;;19.64;43.75;99670.16;10288105;28;20242;-74
2023/09/19 13:11:06;;;;;;;1.77;1.40;;;;;;;19.07;43.38;99720.69;10282154;28;20241;-74
2023/09/19 13:16:09;;;;;;;2.95;1.60;;;;;;;19.63;43.00;99692.91;10282919;28;20235;-74
2023/09/19 13:21:24;;;;;;;3.35;1.30;;;;;;;20.05;42.59;99689.75;10287906;28;20692;-74
2023/09/19 13:26:27;;;;;;;1.83;1.40;;;;;;;19.93;43.63;99687.13;10288816;28;20244;-74
2023/09/19 13:31:29;;;;;;;2.33;1.88;;;;;;;19.17;43.88;99725.50;10288714;28;20321;-72
2023/09/19 13:36:31;;;;;;;2.25;1.35;;;;;;;19.93;43.31;99663.50;10322761;28;20277;-73
2023/09/19 13:41:33;;;;;;;2.75;1.30;;;;;;;19.60;43.88;99682.56;10290035;28;20240;-73
2023/09/19 13:46:35;;;;;;;2.42;1.30;;;;;;;19.68;43.63;99680.25;10283935;28;20239;-73
2023/09/19 13:51:37;;;;;;;2.00;1.45;;;;;;;20.40;42.43;99677.75;10277505;28;20760;-74
2023/09/19 13:56:39;;;;;;;2.80;1.40;;;;;;;20.44;42.16;99651.69;10282530;28;20321;-72
2023/09/19 14:01:41;;;;;;;1.25;1.20;;;;;;;19.54;42.11;99716.91;10281754;28;20325;-72
2023/09/19 14:06:44;;;;;;;3.10;1.20;;;;;;;20.15;41.94;99672.78;10290290;28;20238;-73
2023/09/19 14:11:47;;;;;;;2.08;1.52;;;;;;;21.12;41.36;99591.47;10288803;28;20266;-73
2023/09/19 14:16:49;;;;;;;3.28;1.77;;;;;;;21.30;40.67;99601.97;10285670;28;20317;-74
2023/09/19 14:21:51;;;;;;;2.03;1.40;;;;;;;20.80;41.96;99627.63;10288453;28;20240;-75
2023/09/19 14:26:53;;;;;;;1.38;1.27;;;;;;;20.50;42.66;99654.22;10287370;28;20875;-73
2023/09/19 14:31:57;;;;;;;2.60;1.30;;;;;;;20.31;42.14;99670.03;10289779;28;20236;-74
2023/09/19 14:36:59;;;;;;;2.30;1.40;;;;;;;20.73;42.04;99591.66;10285468;28;20241;-73
2023/09/19 14:42:00;;;;;;;4.03;1.33;;;;;;;19.81;43.60;99607.69;10288140;28;20237;-72
2023/09/19 14:47:04;;;;;;;1.45;1.35;;;;;;;20.24;43.04;99576.19;10285778;28;20935;-73
2023/09/19 14:52:07;;;;;;;2.25;1.40;;;;;;;19.95;43.63;99593.47;10283818;28;20234;-73
2023/09/19 14:57:09;;;;;;;1.50;1.40;;;;;;;20.22;43.52;99565.59;10288231;28;21035;-73
2023/09/19 15:02:11;;;;;;;1.65;1.55;;;;;;;19.35;43.99;99654.75;10282598;28;20242;-75
2023/09/19 15:07:14;;;;;;;1.70;1.20;;;;;;;19.58;43.70;99633.94;10280453;28;20234;-71
2023/09/19 15:12:16;;;;;;;1.48;1.38;;;;;;;20.58;43.14;99518.94;10284554;28;20246;-70
2023/09/19 15:17:19;;;;;;;1.65;1.40;;;;;;;20.74;42.71;99583.25;10284051;28;20300;-72
2023/09/19 15:22:22;;;;;;;1.45;1.35;;;;;;;20.74;42.53;99577.00;10284420;28;20233;-73
2023/09/19 15:27:24;;;;;;;1.20;1.20;;;;;;;21.18;42.94;99528.69;10282784;28;20654;-72
2023/09/19 15:32:25;;;;;;;3.13;1.67;;;;;;;20.42;42.42;99580.47;10291476;28;20222;-73
2023/09/19 15:37:27;;;;;;;1.27;1.20;;;;;;;21.35;41.87;99498.59;10284559;28;20230;-72
2023/09/19 15:42:29;;;;;;;1.50;1.40;;;;;;;21.23;41.48;99553.22;10283512;28;20290;-77
2023/09/19 15:47:30;;;;;;;1.67;1.30;;;;;;;21.79;41.06;99489.31;10288323;28;20243;-72
2023/09/19 15:52:32;;;;;;;1.85;1.65;;;;;;;20.90;42.27;99592.38;10299838;28;20234;-73
2023/09/19 15:57:37;;;;;;;2.25;1.40;;;;;;;20.72;42.48;99557.41;10298179;28;20239;-73
2023/09/19 16:02:39;;;;;;;1.13;1.10;;;;;;;20.42;42.94;99558.75;10292982;28;20240;-73
2023/09/19 16:07:43;;;;;;;1.63;1.30;;;;;;;21.16;42.38;99511.81;10292208;28;20233;-73
2023/09/19 16:12:45;;;;;;;3.25;1.30;;;;;;;21.44;41.41;99509.00;10287316;28;20517;-74
2023/09/19 16:17:47;;;;;;;1.48;1.38;;;;;;;21.17;41.75;99551.56;10293116;28;20226;-75
2023/09/19 16:22:49;;;;;;;1.30;1.20;;;;;;;21.91;40.90;99508.97;10293486;28;20742;-71
2023/09/19 16:27:50;;;;;;;1.70;1.42;;;;;;;21.13;42.50;99536.81;10298184;28;20620;-72
2023/09/19 16:32:52;;;;;;;1.40;1.30;;;;;;;21.35;41.76;99531.25;10302215;28;20276;-74
2023/09/19 16:37:54;;;;;;;6.03;1.35;;;;;;;21.51;41.15;99537.66;10300889;28;20691;-74
2023/09/19 16:42:56;;;;;;;2.45;1.08;;;;;;;21.08;42.12;99553.09;10295713;28;20241;-74
2023/09/19 16:47:58;;;;;;;1.40;1.10;;;;;;;21.44;41.67;99531.59;10299983;28;20281;-74
2023/09/19 16:52:59;;;;;;;2.80;1.20;;;;;;;21.82;41.77;99523.38;10307334;28;20297;-75
2023/09/19 16:58:01;;;;;;;1.27;1.17;;;;;;;21.14;42.05;99529.47;10305906;28;20724;-74
2023/09/19 17:03:03;;;;;;;4.13;1.58;;;;;;;21.15;41.88;99476.72;10301417;28;20661;-74
2023/09/19 17:08:12;;;;;;;1.73;1.50;;;;;;;20.91;41.84;99493.41;10304003;28;20229;-74
2023/09/19 17:13:16;;;;;;;2.00;1.25;;;;;;;20.90;41.61;99529.84;10296904;28;20235;-74
2023/09/19 17:18:19;;;;;;;3.40;1.55;;;;;;;21.22;41.12;99531.72;10299797;28;20755;-74
2023/09/19 17:23:21;;;;;;;1.27;1.17;;;;;;;21.42;41.81;99491.06;10293679;28;20257;-74
2023/09/19 17:28:23;;;;;;;3.22;1.30;;;;;;;21.65;41.41;99505.31;10286024;28;20759;-75
2023/09/19 17:33:26;;;;;;;1.30;1.20;;;;;;;22.42;40.03;99515.63;10291778;28;20258;-74
2023/09/19 17:38:28;;;;;;;1.38;1.27;;;;;;;21.56;41.25;99501.44;10288664;28;20221;-74
2023/09/19 17:43:36;;;;;;;1.35;1.00;;;;;;;20.91;42.43;99564.13;10288259;28;20239;-74
2023/09/19 17:48:40;;;;;;;1.40;1.30;;;;;;;20.91;42.63;99509.72;10295019;28;20242;-73
2023/09/19 17:53:46;;;;;;;2.05;1.20;;;;;;;20.90;42.97;99513.53;10290272;28;20238;-74
2023/09/19 17:58:58;;;;;;;2.35;1.25;;;;;;;20.05;43.16;99597.41;10284213;28;20318;-74
2023/09/19 18:04:01;;;;;;;1.40;1.30;;;;;;;19.92;44.27;99515.25;10291133;28;20234;-74
2023/09/19 18:09:07;;;;;;;3.00;1.30;;;;;;;20.16;43.71;99503.28;10308644;28;20241;-74
2023/09/19 18:14:09;;;;;;;1.35;1.25;;;;;;;20.06;44.19;99526.53;10294014;28;20225;-74
2023/09/19 18:19:12;;;;;;;1.00;1.00;;;;;;;19.84;44.94;99548.28;10280073;28;20238;-73
2023/09/19 18:24:14;;;;;;;1.50;1.40;;;;;;;20.07;44.42;99535.50;10287831;28;20317;-74
2023/09/19 18:29:16;;;;;;;2.33;1.30;;;;;;;20.07;44.11;99563.47;10287312;28;20277;-74
2023/09/19 18:34:17;;;;;;;6.38;1.40;;;;;;;20.03;44.64;99518.09;10290707;28;20245;-73
2023/09/19 18:39:23;;;;;;;1.33;1.15;;;;;;;20.52;43.63;99493.63;10281179;28;20241;-73
2023/09/19 18:44:24;;;;;;;1.77;1.30;;;;;;;20.41;44.25;99514.44;10299256;28;20261;-72
2023/09/19 18:49:26;;;;;;;1.38;1.10;;;;;;;20.56;44.17;99502.88;10286686;28;20304;-73
2023/09/19 18:54:29;;;;;;;1.30;1.20;;;;;;;19.95;44.39;99577.19;10287000;28;20320;-72
2023/09/19 18:59:31;;;;;;;2.92;1.13;;;;;;;19.57;45.72;99553.63;10285247;28;20234;-73
2023/09/19 19:04:32;;;;;;;1.02;1.02;;;;;;;19.98;45.12;99502.56;10286138;28;20722;-70
2023/09/19 19:09:34;;;;;;;1.60;1.50;;;;;;;19.50;45.17;99571.91;10287575;28;20234;-71
2023/09/19 19:14:36;;;;;;;1.73;1.27;;;;;;;19.62;45.10;99564.53;10285487;28;20359;-74
2023/09/19 19:19:39;;;;;;;1.52;1.40;;;;;;;19.10;46.40;99567.53;10279908;28;20318;-75
2023/09/19 19:24:41;;;;;;;1.52;1.40;;;;;;;20.00;44.91;99535.69;10287330;28;20241;-71
2023/09/19 19:29:43;;;;;;;1.52;1.20;;;;;;;20.05;44.52;99540.38;10291413;28;20230;-73
2023/09/19 19:34:47;;;;;;;1.70;1.38;;;;;;;19.54;45.38;99584.75;10288792;28;20404;-72
2023/09/19 19:39:49;;;;;;;1.75;1.63;;;;;;;17.84;48.17;99626.03;10287928;28;20245;-73
2023/09/19 19:44:54;;;;;;;2.80;1.23;;;;;;;17.31;49.98;99579.88;10288239;28;20364;-71
2023/09/19 19:49:58;;;;;;;2.15;1.33;;;;;;;18.01;47.93;99607.97;10291396;28;20267;-72
2023/09/19 19:55:00;;;;;;;1.13;1.13;;;;;;;17.61;49.69;99570.81;10284436;28;20743;-70
2023/09/19 20:00:06;;;;;;;1.50;1.40;;;;;;;18.67;48.10;99526.38;10283552;28;20885;-73
2023/09/19 20:05:11;;;;;;;1.67;1.58;;;;;;;18.40;48.05;99581.16;10290523;28;20611;-74
2023/09/19 20:10:19;;;;;;;2.47;1.35;;;;;;;19.01;47.46;99550.84;10299632;28;20242;-73
2023/09/19 20:15:24;;;;;;;3.35;1.58;;;;;;;18.90;47.27;99565.28;10288297;28;20325;-72
2023/09/19 20:20:29;;;;;;;2.05;1.40;;;;;;;19.97;45.66;99521.81;10289079;28;20239;-72
2023/09/19 20:25:34;;;;;;;1.40;1.30;;;;;;;19.31;46.25;99588.47;10271308;28;20231;-70
2023/09/19 20:30:43;;;;;;;2.90;1.27;;;;;;;18.37;48.32;99621.47;10290104;28;20272;-75
2023/09/19 20:35:46;;;;;;;2.65;1.48;;;;;;;18.25;48.20;99603.34;10284613;28;20284;-75
2023/09/19 20:40:47;;;;;;;2.97;1.48;;;;;;;19.13;47.18;99527.19;10286753;28;20385;-73
2023/09/19 20:45:52;;;;;;;1.42;1.33;;;;;;;20.31;44.98;99515.16;10283607;28;20226;-76
2023/09/19 20:50:54;;;;;;;1.35;1.25;;;;;;;19.98;45.72;99534.31;10284070;28;20245;-76
2023/09/19 20:56:00;;;;;;;1.98;1.50;;;;;;;19.80;45.27;99625.84;10285276;28;20227;-76
2023/09/19 21:01:06;;;;;;;2.42;1.40;;;;;;;19.38;46.64;99610.84;10287793;28;20296;-78
2023/09/19 21:06:10;;;;;;;2.25;1.40;;;;;;;19.82;45.54;99609.31;10285188;28;20238;-77
2023/09/19 21:11:19;;;;;;;1.58;1.48;;;;;;;20.21;44.91;99579.41;10286645;28;20337;-77
2023/09/19 21:16:21;;;;;;;1.30;1.20;;;;;;;19.97;45.60;99603.28;10283424;28;20237;-78
2023/09/19 21:21:23;;;;;;;1.65;1.45;;;;;;;20.23;44.93;99569.13;10288287;28;20321;-79
2023/09/19 21:26:25;;;;;;;3.30;1.58;;;;;;;20.69;44.12;99547.84;10287512;28;20233;-76
2023/09/19 21:31:27;;;;;;;3.88;1.52;;;;;;;18.91;47.60;99640.09;10282183;28;20238;-76
2023/09/19 21:36:32;;;;;;;3.00;1.60;;;;;;;19.36;46.50;99599.38;10285743;28;20593;-77
2023/09/19 21:41:36;;;;;;;1.73;1.40;;;;;;;19.41;46.04;99643.97;10282521;28;20267;-78
2023/09/19 21:46:39;;;;;;;2.50;1.60;;;;;;;19.28;46.82;99588.97;10284308;28;20691;-77
2023/09/19 21:51:41;;;;;;;3.33;1.40;;;;;;;18.98;47.65;99594.72;10286759;28;20325;-79
2023/09/19 21:56:43;;;;;;;2.67;1.40;;;;;;;18.53;48.55;99601.75;10287159;28;20795;-79
2023/09/19 22:01:47;;;;;;;1.92;1.30;;;;;;;18.37;48.01;99676.47;10289656;28;20665;-78
2023/09/19 22:06:48;;;;;;;1.48;1.38;;;;;;;18.16;48.49;99609.38;10286902;28;20237;-78
2023/09/19 22:11:51;;;;;;;1.65;1.55;;;;;;;18.39;47.52;99608.50;10291437;28;20253;-77
2023/09/19 22:16:53;;;;;;;1.52;1.42;;;;;;;18.32;47.37;99641.16;10288020;28;20240;-79
2023/09/19 22:21:54;;;;;;;2.53;1.67;;;;;;;19.45;46.21;99552.84;10291754;28;20276;-78
2023/09/19 22:26:56;;;;;;;1.45;1.40;;;;;;;18.87;46.79;99607.22;10301720;28;20269;-77
2023/09/19 22:31:58;;;;;;;1.95;1.50;;;;;;;18.10;48.32;99594.88;10286441;28;20249;-78
2023/09/19 22:37:01;;;;;;;1.70;1.30;;;;;;;17.85;48.54;99587.06;10274290;28;20710;-77
2023/09/19 22:42:03;;;;;;;2.35;1.65;;;;;;;17.84;48.48;99551.06;10306262;28;20241;-78
2023/09/19 22:47:07;;;;;;;2.88;1.90;;;;;;;18.32;47.62;99549.06;10283445;28;20612;-78
2023/09/19 22:52:09;;;;;;;3.65;1.80;;;;;;;17.09;49.50;99630.16;10285799;28;20237;-79
2023/09/19 22:57:13;;;;;;;2.20;1.90;;;;;;;17.21;49.54;99603.97;10278786;28;20328;-77
2023/09/19 23:02:18;;;;;;;1.85;1.55;;;;;;;17.93;48.24;99540.69;10282219;28;20238;-77
2023/09/19 23:07:20;;;;;;;1.65;1.55;;;;;;;18.07;48.07;99557.50;10285782;28;20276;-77
2023/09/19 23:12:23;;;;;;;3.00;1.73;;;;;;;17.60;48.40;99661.16;10286065;28;20238;-80
2023/09/19 23:17:25;;;;;;;2.40;1.60;;;;;;;17.43;49.27;99562.84;10281295;28;20271;-78
2023/09/19 23:22:28;;;;;;;2.33;1.70;;;;;;;16.52;50.40;99652.13;10284600;28;20619;-79
2023/09/19 23:27:34;;;;;;;1.70;1.40;;;;;;;17.09;49.28;99636.41;10282331;28;20267;-77
2023/09/19 23:32:37;;;;;;;2.50;1.93;;;;;;;16.82;50.38;99571.09;10283641;28;20987;-77
2023/09/19 23:37:40;;;;;;;2.55;1.83;;;;;;;16.24;50.45;99673.19;10283023;28;20245;-78
2023/09/19 23:42:42;;;;;;;1.73;1.63;;;;;;;17.31;49.19;99533.91;10280089;28;20313;-77
2023/09/19 23:47:45;;;;;;;4.67;2.30;;;;;;;16.23;50.95;99606.75;10287537;28;20230;-78